Time;durP1;ratioP1;P1;durP2;ratioP2;P2;SDS_P1;SDS_P2;PMS_P1;PMS_P2;Temp;Humidity;BMP_temperature;BMP_pressure;BME280_temperature;BME280_humidity;BME280_pressure;Samples;Min_cycle;Max_cycle;Signal;HPM_P1;HPM_P2
2021/07/01 00:01:41;;;;;;;1.50;1.00;;;16.00;98.20;;;;;;5030447;28;20488;-75
2021/07/01 00:04:08;;;;;;;1.50;1.00;;;16.00;98.20;;;;;;5040822;28;20455;-75
2021/07/01 00:06:35;;;;;;;1.50;1.00;;;15.90;98.20;;;;;;5029544;28;20572;-75
2021/07/01 00:09:03;;;;;;;1.50;1.00;;;15.90;98.20;;;;;;5045268;28;20455;-75
2021/07/01 00:11:29;;;;;;;1.50;1.00;;;15.90;98.20;;;;;;5024619;28;20485;-75
2021/07/01 00:13:56;;;;;;;1.50;0.90;;;15.90;98.20;;;;;;5044481;28;20462;-75
2021/07/01 00:16:26;;;;;;;1.50;0.97;;;15.90;98.20;;;;;;5026716;28;20477;-75
2021/07/01 00:18:52;;;;;;;1.50;0.90;;;15.90;98.20;;;;;;5045640;28;20474;-76
2021/07/01 00:21:19;;;;;;;1.50;1.00;;;15.80;98.20;;;;;;5026515;28;20484;-76
2021/07/01 00:23:46;;;;;;;1.50;1.00;;;15.80;98.20;;;;;;5052470;28;20474;-76
2021/07/01 00:26:13;;;;;;;1.50;1.00;;;15.80;98.20;;;;;;5026111;28;20481;-75
2021/07/01 00:28:40;;;;;;;1.50;1.00;;;15.70;98.20;;;;;;5049090;28;21010;-74
2021/07/01 00:31:07;;;;;;;1.50;1.00;;;15.70;98.20;;;;;;5019375;28;21953;-74
2021/07/01 00:33:35;;;;;;;1.50;1.00;;;15.70;98.20;;;;;;5039581;28;20470;-75
2021/07/01 00:36:01;;;;;;;1.50;1.00;;;15.70;98.20;;;;;;5022014;28;20483;-76
2021/07/01 00:38:28;;;;;;;1.50;1.00;;;15.70;98.20;;;;;;5052084;28;20473;-75
2021/07/01 00:40:56;;;;;;;1.50;1.00;;;15.70;98.20;;;;;;5015614;28;20874;-75
2021/07/01 00:43:23;;;;;;;1.50;1.00;;;15.70;98.20;;;;;;5039787;28;20517;-75
2021/07/01 00:45:50;;;;;;;1.50;0.90;;;15.80;98.20;;;;;;5026204;28;20458;-75
2021/07/01 00:48:17;;;;;;;1.50;0.90;;;15.70;98.20;;;;;;5038044;28;20464;-75
2021/07/01 00:50:46;;;;;;;1.50;1.00;;;15.70;98.20;;;;;;5015651;28;20478;-75
2021/07/01 00:53:13;;;;;;;1.50;0.90;;;15.70;98.20;;;;;;5021417;28;20475;-75
2021/07/01 00:55:40;;;;;;;1.50;1.00;;;15.70;98.20;;;;;;5036893;28;20986;-75
2021/07/01 00:58:08;;;;;;;1.50;1.00;;;15.70;98.20;;;;;;5047393;28;21016;-75
2021/07/01 01:00:46;;;;;;;1.50;1.00;;;15.70;98.20;;;;;;5029242;28;20486;-75
2021/07/01 01:03:13;;;;;;;1.50;1.00;;;15.70;98.20;;;;;;5016961;28;20478;-74
2021/07/01 01:05:40;;;;;;;1.53;1.00;;;15.70;98.20;;;;;;5014799;28;20467;-76
2021/07/01 01:08:08;;;;;;;1.53;1.00;;;15.70;98.20;;;;;;5051084;28;20475;-75
2021/07/01 01:10:35;;;;;;;1.57;1.00;;;15.70;98.20;;;;;;5028920;28;20509;-75
2021/07/01 01:13:02;;;;;;;1.50;0.90;;;15.70;98.20;;;;;;5050461;28;20511;-76
2021/07/01 01:15:29;;;;;;;1.50;1.00;;;15.70;98.20;;;;;;5029223;28;20502;-76
2021/07/01 01:17:56;;;;;;;1.50;1.00;;;15.70;98.20;;;;;;5035932;28;20560;-75
2021/07/01 01:20:22;;;;;;;1.50;1.00;;;15.70;98.20;;;;;;5028054;28;20488;-75
2021/07/01 01:22:51;;;;;;;1.50;0.90;;;15.70;98.20;;;;;;5034591;28;20906;-76
2021/07/01 01:25:18;;;;;;;1.50;0.90;;;15.60;98.20;;;;;;5027627;28;20471;-76
2021/07/01 01:27:44;;;;;;;1.60;1.10;;;15.60;98.20;;;;;;5049944;28;20477;-76
2021/07/01 01:30:13;;;;;;;1.50;0.90;;;15.60;98.20;;;;;;5026830;28;20862;-76
2021/07/01 01:32:40;;;;;;;1.50;0.90;;;15.60;98.20;;;;;;5032930;28;20565;-76
2021/07/01 01:35:07;;;;;;;1.50;0.90;;;15.60;98.20;;;;;;5029478;28;20467;-76
2021/07/01 01:37:34;;;;;;;1.50;1.00;;;15.60;98.20;;;;;;5033916;28;20501;-75
2021/07/01 01:40:02;;;;;;;1.50;1.00;;;15.60;98.20;;;;;;5030115;28;20554;-75
2021/07/01 01:42:29;;;;;;;1.57;1.00;;;15.60;98.20;;;;;;5046573;28;20473;-76
2021/07/01 01:44:56;;;;;;;1.57;1.00;;;15.60;98.20;;;;;;5029661;28;20463;-76
2021/07/01 01:47:23;;;;;;;1.50;1.00;;;15.60;98.20;;;;;;5043196;28;20477;-75
2021/07/01 01:49:50;;;;;;;1.53;1.00;;;15.60;98.20;;;;;;5034501;28;20455;-76
2021/07/01 01:52:18;;;;;;;1.50;0.97;;;15.50;98.20;;;;;;5042488;28;20536;-76
2021/07/01 01:54:45;;;;;;;1.50;1.00;;;15.50;98.20;;;;;;5035600;28;20459;-75
2021/07/01 01:57:13;;;;;;;1.50;1.00;;;15.50;98.20;;;;;;5038537;28;20581;-74
2021/07/01 01:59:40;;;;;;;1.50;1.00;;;15.50;98.20;;;;;;5033620;28;20463;-76
2021/07/01 02:02:07;;;;;;;1.50;1.00;;;15.50;98.20;;;;;;5039076;28;20485;-76
2021/07/01 02:04:34;;;;;;;1.50;0.90;;;15.50;98.20;;;;;;5043792;28;20477;-75
2021/07/01 02:07:00;;;;;;;1.50;1.00;;;15.50;98.20;;;;;;5036364;28;20477;-75
2021/07/01 02:09:27;;;;;;;1.50;1.00;;;15.50;98.20;;;;;;5038748;28;20840;-76
2021/07/01 02:11:54;;;;;;;1.57;1.10;;;15.50;98.20;;;;;;5027053;28;20478;-75
2021/07/01 02:14:22;;;;;;;1.50;0.90;;;15.50;98.20;;;;;;5037692;28;20616;-76
2021/07/01 02:16:49;;;;;;;1.50;0.97;;;15.50;98.20;;;;;;5033381;28;20481;-76
2021/07/01 02:19:16;;;;;;;1.60;1.03;;;15.50;98.20;;;;;;5044522;28;20495;-76
2021/07/01 02:21:43;;;;;;;1.53;1.00;;;15.50;98.20;;;;;;5028764;28;20482;-75
2021/07/01 02:24:09;;;;;;;1.60;1.07;;;15.50;98.20;;;;;;5039257;28;20466;-76
2021/07/01 02:26:37;;;;;;;1.53;1.00;;;15.50;98.20;;;;;;5036806;28;20486;-76
2021/07/01 02:29:04;;;;;;;1.57;1.00;;;15.50;98.20;;;;;;5047479;28;20508;-76
2021/07/01 02:31:32;;;;;;;1.50;1.00;;;15.50;98.20;;;;;;5027945;28;20481;-76
2021/07/01 02:33:59;;;;;;;1.50;1.00;;;15.50;98.20;;;;;;5049572;28;20463;-75
2021/07/01 02:36:25;;;;;;;1.50;0.90;;;15.50;98.20;;;;;;5028613;28;20480;-76
2021/07/01 02:38:52;;;;;;;1.50;1.00;;;15.50;98.20;;;;;;5044376;28;20464;-76
2021/07/01 02:41:19;;;;;;;1.60;1.10;;;15.50;98.20;;;;;;5024661;28;20470;-76
2021/07/01 02:43:46;;;;;;;1.50;1.00;;;15.50;98.20;;;;;;5052142;28;20964;-75
2021/07/01 02:46:13;;;;;;;1.50;0.90;;;15.50;98.20;;;;;;5027090;28;20492;-76
2021/07/01 02:48:41;;;;;;;1.50;1.00;;;15.50;98.20;;;;;;5051728;28;20478;-74
2021/07/01 02:51:08;;;;;;;1.50;1.00;;;15.50;98.20;;;;;;5023975;28;20872;-75
2021/07/01 02:53:35;;;;;;;1.50;1.00;;;15.50;98.20;;;;;;5055927;28;20486;-76
2021/07/01 02:56:02;;;;;;;1.50;1.00;;;15.50;98.20;;;;;;5021714;28;20456;-76
2021/07/01 02:58:28;;;;;;;1.50;0.93;;;15.50;98.20;;;;;;5042311;28;20464;-76
2021/07/01 03:00:55;;;;;;;1.50;1.00;;;15.50;98.20;;;;;;5020497;28;20939;-76
2021/07/01 03:03:22;;;;;;;1.53;1.00;;;15.50;98.20;;;;;;5044106;28;20469;-76
2021/07/01 03:05:50;;;;;;;1.50;1.00;;;15.50;98.20;;;;;;5016368;28;20466;-76
2021/07/01 03:08:17;;;;;;;1.50;1.00;;;15.40;98.20;;;;;;5060076;28;20550;-76
2021/07/01 03:10:45;;;;;;;1.50;1.00;;;15.50;98.20;;;;;;5021285;28;20495;-76
2021/07/01 03:13:12;;;;;;;1.50;0.90;;;15.50;98.20;;;;;;5032539;28;20499;-76
2021/07/01 03:15:39;;;;;;;1.50;1.00;;;15.40;98.20;;;;;;5029819;28;20660;-75
2021/07/01 03:18:06;;;;;;;1.50;1.00;;;15.40;98.20;;;;;;5050883;28;20494;-75
2021/07/01 03:20:32;;;;;;;1.50;0.97;;;15.40;98.20;;;;;;5035239;28;20510;-76
2021/07/01 03:23:02;;;;;;;1.53;0.90;;;15.30;98.20;;;;;;5056706;28;20783;-75
2021/07/01 03:25:29;;;;;;;1.50;1.00;;;15.40;98.20;;;;;;5028005;28;20467;-75
2021/07/01 03:27:55;;;;;;;1.50;1.00;;;15.40;98.20;;;;;;5049904;28;20560;-76
2021/07/01 03:30:23;;;;;;;1.50;1.00;;;15.40;98.20;;;;;;5034928;28;21105;-76
2021/07/01 03:32:49;;;;;;;1.50;1.00;;;15.40;98.20;;;;;;5048182;28;20943;-75
2021/07/01 03:35:16;;;;;;;1.50;1.10;;;15.40;98.20;;;;;;5032960;28;20463;-75
2021/07/01 03:37:43;;;;;;;1.50;1.00;;;15.40;98.20;;;;;;5052311;28;20477;-76
2021/07/01 03:40:12;;;;;;;1.50;1.00;;;15.40;98.20;;;;;;5031051;28;20468;-76
2021/07/01 03:42:39;;;;;;;1.50;0.90;;;15.40;98.20;;;;;;5045724;28;20481;-76
2021/07/01 03:45:06;;;;;;;1.50;1.00;;;15.40;98.20;;;;;;5031696;28;20517;-76
2021/07/01 03:47:34;;;;;;;1.50;1.00;;;15.40;98.20;;;;;;5047985;28;20474;-75
2021/07/01 03:50:01;;;;;;;1.50;1.00;;;15.40;98.20;;;;;;5029497;28;20474;-76
2021/07/01 03:52:27;;;;;;;1.53;1.00;;;15.40;98.20;;;;;;5045086;28;20523;-75
2021/07/01 03:54:54;;;;;;;1.50;1.00;;;15.40;98.20;;;;;;5033221;28;20455;-74
2021/07/01 03:57:22;;;;;;;1.50;0.90;;;15.40;98.20;;;;;;5032132;28;21009;-75
2021/07/01 03:59:49;;;;;;;1.50;1.00;;;15.30;98.20;;;;;;5027423;28;20495;-74
2021/07/01 04:02:17;;;;;;;1.50;1.00;;;15.30;98.20;;;;;;5041938;28;20950;-77
2021/07/01 04:04:44;;;;;;;1.50;1.00;;;15.30;98.20;;;;;;5038442;28;20467;-74
2021/07/01 04:07:11;;;;;;;1.50;1.10;;;15.30;98.20;;;;;;5037931;28;20496;-74
2021/07/01 04:09:39;;;;;;;1.53;0.90;;;15.30;98.20;;;;;;5035247;28;20459;-74
2021/07/01 04:12:08;;;;;;;1.50;0.93;;;15.30;98.20;;;;;;5026488;28;21009;-74
2021/07/01 04:14:36;;;;;;;1.50;1.00;;;15.30;98.20;;;;;;5032510;28;20542;-75
2021/07/01 04:17:03;;;;;;;1.53;1.10;;;15.30;98.20;;;;;;5037505;28;20477;-75
2021/07/01 04:19:30;;;;;;;1.50;1.00;;;15.30;98.20;;;;;;5038823;28;20495;-75
2021/07/01 04:21:57;;;;;;;1.50;1.00;;;15.30;98.20;;;;;;5038266;28;20873;-74
2021/07/01 04:24:27;;;;;;;1.50;1.00;;;15.40;98.20;;;;;;5050867;28;20455;-74
2021/07/01 04:26:54;;;;;;;1.50;0.90;;;15.40;98.20;;;;;;5028987;28;20517;-75
2021/07/01 04:29:21;;;;;;;1.50;1.00;;;15.40;98.20;;;;;;5036588;28;20474;-75
2021/07/01 04:31:50;;;;;;;1.50;1.00;;;15.40;98.20;;;;;;5041581;28;20635;-75
2021/07/01 04:34:16;;;;;;;1.50;1.00;;;15.40;98.20;;;;;;5045823;28;20463;-75
2021/07/01 04:36:43;;;;;;;1.50;0.90;;;15.40;98.20;;;;;;5028918;28;20485;-75
2021/07/01 04:39:10;;;;;;;1.50;1.00;;;15.40;98.20;;;;;;5046722;28;20529;-75
2021/07/01 04:41:37;;;;;;;1.50;0.97;;;15.40;98.20;;;;;;5027632;28;20890;-75
2021/07/01 04:44:05;;;;;;;1.57;1.00;;;15.40;98.20;;;;;;5040113;28;20542;-76
2021/07/01 04:46:32;;;;;;;1.53;1.03;;;15.40;98.20;;;;;;5030091;28;20473;-74
2021/07/01 04:49:00;;;;;;;1.50;1.00;;;15.40;98.20;;;;;;5039875;28;20459;-75
2021/07/01 04:51:28;;;;;;;1.50;1.10;;;15.50;98.20;;;;;;5037611;28;20481;-75
2021/07/01 04:53:55;;;;;;;1.50;1.00;;;15.40;98.20;;;;;;5054699;28;20473;-74
2021/07/01 04:56:22;;;;;;;1.50;0.90;;;15.40;98.20;;;;;;5033134;28;20563;-74
2021/07/01 04:58:49;;;;;;;1.50;1.00;;;15.50;98.20;;;;;;5058770;28;20487;-75
2021/07/01 05:01:20;;;;;;;1.50;1.00;;;15.50;98.20;;;;;;5025390;28;20533;-74
2021/07/01 05:03:46;;;;;;;1.50;1.00;;;15.50;98.20;;;;;;5045147;28;20516;-73
2021/07/01 05:06:15;;;;;;;1.60;1.30;;;15.40;98.20;;;;;;5030125;28;20478;-74
2021/07/01 05:08:42;;;;;;;1.50;1.00;;;15.50;98.20;;;;;;5060891;28;20471;-73
2021/07/01 05:11:09;;;;;;;1.50;1.00;;;15.50;98.20;;;;;;5025222;28;20485;-74
2021/07/01 05:13:36;;;;;;;1.50;1.00;;;15.40;98.20;;;;;;5055846;28;20539;-74
2021/07/01 05:16:03;;;;;;;1.50;1.00;;;15.50;98.20;;;;;;5025329;28;20916;-75
2021/07/01 05:18:30;;;;;;;1.50;1.00;;;15.50;98.20;;;;;;5055246;28;20487;-72
2021/07/01 05:20:57;;;;;;;1.53;1.00;;;15.50;98.20;;;;;;5024897;28;20485;-74
2021/07/01 05:23:25;;;;;;;1.60;1.10;;;15.50;98.20;;;;;;5063579;28;20839;-74
2021/07/01 05:25:54;;;;;;;1.60;1.00;;;15.50;98.20;;;;;;5020970;28;20455;-74
2021/07/01 05:28:21;;;;;;;1.50;1.00;;;15.50;98.20;;;;;;5059091;28;20455;-76
2021/07/01 05:30:49;;;;;;;1.50;1.00;;;15.50;98.20;;;;;;5019764;28;20511;-74
2021/07/01 05:33:16;;;;;;;1.50;0.97;;;15.50;98.20;;;;;;5061924;28;20466;-75
2021/07/01 05:35:44;;;;;;;1.50;1.00;;;15.40;98.20;;;;;;5032747;28;20854;-75
2021/07/01 05:38:11;;;;;;;1.60;1.10;;;15.40;98.20;;;;;;5004756;28;20559;-73
2021/07/01 05:40:39;;;;;;;1.50;1.00;;;15.40;98.20;;;;;;5017589;28;20520;-74
2021/07/01 05:43:07;;;;;;;1.53;1.00;;;15.50;98.20;;;;;;5032153;28;20489;-74
2021/07/01 05:45:34;;;;;;;1.50;1.00;;;15.50;98.20;;;;;;5012600;28;20468;-73
2021/07/01 05:48:02;;;;;;;1.50;1.00;;;15.60;98.20;;;;;;5030311;28;20478;-75
2021/07/01 05:50:30;;;;;;;1.50;0.90;;;15.60;98.20;;;;;;5012219;28;20823;-75
2021/07/01 05:53:00;;;;;;;1.50;1.00;;;15.60;98.20;;;;;;5031819;28;20609;-73
2021/07/01 05:55:27;;;;;;;1.50;0.90;;;15.60;98.20;;;;;;5010973;28;20464;-74
2021/07/01 05:57:56;;;;;;;1.50;1.00;;;15.60;98.20;;;;;;5031797;28;20508;-73
2021/07/01 06:00:24;;;;;;;1.50;0.90;;;15.70;98.20;;;;;;5008170;28;20488;-72
2021/07/01 06:02:51;;;;;;;1.50;1.00;;;15.70;98.20;;;;;;5032174;28;20482;-75
2021/07/01 06:05:18;;;;;;;1.50;1.00;;;15.80;98.20;;;;;;5012136;28;20945;-74
2021/07/01 06:07:49;;;;;;;1.60;1.10;;;15.80;98.20;;;;;;5032146;28;20470;-74
2021/07/01 06:10:18;;;;;;;1.53;1.00;;;15.80;98.20;;;;;;5009684;28;20552;-75
2021/07/01 06:12:46;;;;;;;1.50;0.93;;;15.90;98.20;;;;;;5031160;28;20504;-76
2021/07/01 06:15:15;;;;;;;1.50;0.90;;;15.90;98.20;;;;;;5011775;28;20474;-75
2021/07/01 06:17:43;;;;;;;1.53;1.00;;;15.90;98.20;;;;;;5031044;28;20589;-74
2021/07/01 06:20:12;;;;;;;1.50;1.00;;;15.90;98.20;;;;;;5008576;28;20471;-75
2021/07/01 06:22:40;;;;;;;1.50;1.00;;;16.00;98.20;;;;;;5014570;28;20565;-73
2021/07/01 06:25:08;;;;;;;1.50;1.00;;;16.00;98.20;;;;;;5011700;28;20460;-74
2021/07/01 06:27:37;;;;;;;1.50;1.00;;;16.00;98.20;;;;;;5027823;28;20487;-75
2021/07/01 06:30:09;;;;;;;1.53;1.00;;;16.10;98.20;;;;;;5012333;28;20570;-75
2021/07/01 06:32:44;;;;;;;1.50;0.90;;;16.10;98.20;;;;;;5030220;28;20863;-75
2021/07/01 06:35:12;;;;;;;1.50;1.00;;;16.10;98.20;;;;;;5011384;28;20463;-77
2021/07/01 06:37:40;;;;;;;1.50;1.00;;;16.10;98.20;;;;;;5030470;28;20490;-75
2021/07/01 06:40:10;;;;;;;1.60;1.00;;;16.10;98.20;;;;;;5011046;28;20459;-76
2021/07/01 06:42:44;;;;;;;1.50;0.90;;;16.10;98.20;;;;;;5027776;28;20478;-74
2021/07/01 06:45:12;;;;;;;1.50;1.00;;;16.10;98.20;;;;;;5006911;28;20467;-74
2021/07/01 06:47:47;;;;;;;1.50;1.00;;;16.00;98.20;;;;;;5030441;28;20482;-72
2021/07/01 06:50:15;;;;;;;1.50;1.00;;;16.10;98.20;;;;;;5007911;28;20468;-75
2021/07/01 06:52:44;;;;;;;1.50;1.03;;;16.10;98.20;;;;;;5014831;28;20537;-75
2021/07/01 06:55:15;;;;;;;1.50;1.00;;;16.20;98.20;;;;;;5010547;28;20486;-76
2021/07/01 06:57:42;;;;;;;1.50;1.00;;;16.30;98.20;;;;;;5014849;28;20483;-74
2021/07/01 07:00:11;;;;;;;1.50;0.90;;;16.30;98.20;;;;;;5011673;28;20490;-75
2021/07/01 07:02:45;;;;;;;1.50;1.00;;;16.30;98.20;;;;;;5030052;28;20985;-73
2021/07/01 07:05:14;;;;;;;1.50;1.00;;;16.30;98.20;;;;;;5011337;28;21017;-74
2021/07/01 07:07:42;;;;;;;1.53;1.00;;;16.30;98.20;;;;;;5014888;28;20490;-75
2021/07/01 07:10:11;;;;;;;1.50;1.00;;;16.30;98.20;;;;;;5010514;28;21022;-75
2021/07/01 07:12:41;;;;;;;1.60;1.13;;;16.40;98.20;;;;;;5028073;28;20486;-75
2021/07/01 07:15:09;;;;;;;1.50;1.00;;;16.40;98.20;;;;;;5010271;28;20739;-73
2021/07/01 07:17:38;;;;;;;1.60;1.10;;;16.50;98.20;;;;;;5014831;28;20487;-74
2021/07/01 07:20:10;;;;;;;1.50;1.00;;;16.50;98.20;;;;;;5010435;28;20464;-76
2021/07/01 07:22:41;;;;;;;1.50;1.00;;;16.50;98.20;;;;;;5013000;28;20483;-77
2021/07/01 07:25:10;;;;;;;1.50;1.00;;;16.40;98.20;;;;;;5009548;28;20468;-72
2021/07/01 07:27:39;;;;;;;1.50;1.00;;;16.40;98.20;;;;;;5027243;28;20478;-73
2021/07/01 07:30:07;;;;;;;1.50;1.00;;;16.40;98.20;;;;;;5009962;28;21124;-75
2021/07/01 07:32:39;;;;;;;1.50;1.00;;;16.30;98.20;;;;;;5028051;28;20712;-75
2021/07/01 07:35:09;;;;;;;1.50;0.90;;;16.30;98.20;;;;;;5011295;28;20488;-75
2021/07/01 07:37:37;;;;;;;1.50;0.90;;;16.30;98.20;;;;;;5014763;28;21143;-75
2021/07/01 07:40:05;;;;;;;1.50;0.97;;;16.30;98.20;;;;;;5009785;28;20522;-74
2021/07/01 07:42:33;;;;;;;1.50;0.90;;;16.30;98.20;;;;;;5012387;28;20850;-75
2021/07/01 07:45:01;;;;;;;1.50;0.90;;;16.40;98.20;;;;;;5011317;28;20466;-74
2021/07/01 07:47:30;;;;;;;1.53;1.00;;;16.50;98.20;;;;;;5012887;28;20486;-74
2021/07/01 07:49:58;;;;;;;1.50;0.90;;;16.60;98.20;;;;;;5012325;28;21007;-74
2021/07/01 07:52:28;;;;;;;1.53;1.00;;;16.60;98.20;;;;;;5012974;28;20769;-71
2021/07/01 07:54:58;;;;;;;1.50;0.90;;;16.70;98.20;;;;;;5012138;28;20848;-73
2021/07/01 07:57:28;;;;;;;1.57;1.07;;;16.70;98.20;;;;;;5010938;28;20763;-73
2021/07/01 07:59:59;;;;;;;1.50;1.00;;;16.70;98.20;;;;;;5014933;28;20594;-73
2021/07/01 08:02:47;;;;;;;1.50;1.00;;;16.70;98.20;;;;;;5026623;28;20478;-74
2021/07/01 08:05:16;;;;;;;1.50;0.90;;;16.60;98.20;;;;;;5012664;28;20496;-74
2021/07/01 08:07:46;;;;;;;1.50;0.93;;;16.60;98.20;;;;;;5030786;28;21206;-74
2021/07/01 08:10:18;;;;;;;1.60;1.00;;;16.60;98.20;;;;;;5010782;28;20941;-75
2021/07/01 08:12:51;;;;;;;1.60;0.97;;;16.60;98.20;;;;;;5031403;28;20478;-73
2021/07/01 08:15:21;;;;;;;1.50;0.90;;;16.60;98.20;;;;;;5010154;28;20483;-75
2021/07/01 08:17:52;;;;;;;1.50;0.90;;;16.60;98.20;;;;;;5031765;28;20482;-72
2021/07/01 08:20:27;;;;;;;1.50;1.00;;;16.60;98.20;;;;;;5010991;28;20471;-76
2021/07/01 08:22:58;;;;;;;1.50;0.90;;;16.80;98.20;;;;;;5027309;28;20486;-74
2021/07/01 08:25:26;;;;;;;1.50;0.90;;;17.00;98.20;;;;;;5007635;28;20466;-73
2021/07/01 08:27:54;;;;;;;1.50;0.90;;;17.20;98.20;;;;;;5013124;28;20490;-74
2021/07/01 08:30:23;;;;;;;1.60;1.00;;;17.40;98.20;;;;;;5007919;28;20476;-74
2021/07/01 08:32:55;;;;;;;1.50;1.00;;;17.60;98.20;;;;;;5029422;28;20566;-75
2021/07/01 08:35:25;;;;;;;1.50;0.90;;;17.70;97.90;;;;;;5010675;28;20868;-74
2021/07/01 08:37:54;;;;;;;1.50;0.90;;;17.70;97.50;;;;;;5030607;28;20486;-76
2021/07/01 08:40:30;;;;;;;1.50;0.90;;;17.60;97.20;;;;;;5009290;28;20570;-75
2021/07/01 08:43:00;;;;;;;1.53;0.90;;;17.60;97.20;;;;;;5029133;28;20490;-76
2021/07/01 08:45:50;;;;;;;1.50;0.90;;;17.70;97.30;;;;;;5008903;28;20460;-76
2021/07/01 08:48:23;;;;;;;1.50;1.00;;;17.60;96.90;;;;;;5028042;28;20473;-74
2021/07/01 08:50:59;;;;;;;1.53;1.00;;;17.60;97.00;;;;;;5015517;28;20479;-76
2021/07/01 08:54:11;;;;;;;1.50;0.90;;;17.50;97.80;;;;;;5038236;28;20901;-76
2021/07/01 08:56:43;;;;;;;3.67;3.37;;;17.50;97.30;;;;;;5006430;28;20480;-75
2021/07/01 08:59:12;;;;;;;1.50;0.90;;;17.40;97.90;;;;;;5023347;28;20496;-74
2021/07/01 09:01:40;;;;;;;1.50;1.00;;;17.40;98.00;;;;;;5012881;28;21019;-75
2021/07/01 09:04:11;;;;;;;1.50;0.90;;;17.40;97.80;;;;;;5023775;28;20824;-74
2021/07/01 09:06:38;;;;;;;1.50;1.00;;;17.30;98.20;;;;;;5012330;28;20484;-75
2021/07/01 09:09:07;;;;;;;1.53;1.00;;;17.30;98.10;;;;;;5029540;28;20528;-75
2021/07/01 09:11:37;;;;;;;1.60;1.20;;;17.20;98.20;;;;;;5018708;28;20536;-74
2021/07/01 09:14:09;;;;;;;1.50;0.90;;;17.20;97.90;;;;;;5032284;28;20464;-77
2021/07/01 09:16:37;;;;;;;1.50;1.00;;;17.20;97.80;;;;;;5014852;28;20474;-73
2021/07/01 09:19:08;;;;;;;1.53;1.00;;;17.20;97.90;;;;;;5032287;28;20483;-75
2021/07/01 09:21:37;;;;;;;1.50;1.00;;;17.10;98.20;;;;;;5016864;28;20540;-74
2021/07/01 09:24:05;;;;;;;1.50;0.90;;;17.10;98.20;;;;;;5026237;28;20533;-74
2021/07/01 09:26:32;;;;;;;1.50;1.10;;;17.10;98.20;;;;;;5014846;28;20478;-75
2021/07/01 09:29:00;;;;;;;1.50;1.00;;;17.00;98.20;;;;;;5030488;28;20467;-74
2021/07/01 09:31:29;;;;;;;1.50;0.90;;;17.00;98.20;;;;;;5007439;28;20517;-75
2021/07/01 09:33:57;;;;;;;1.50;1.00;;;17.00;98.20;;;;;;5022741;28;20494;-74
2021/07/01 09:36:25;;;;;;;1.50;1.00;;;17.00;98.20;;;;;;5013668;28;20711;-75
2021/07/01 09:38:56;;;;;;;1.50;0.97;;;17.00;98.20;;;;;;5035968;28;20488;-74
2021/07/01 09:41:24;;;;;;;1.50;0.90;;;17.00;98.20;;;;;;5008405;28;21090;-76
2021/07/01 09:43:51;;;;;;;1.50;0.90;;;17.00;98.20;;;;;;5034344;28;20954;-75
2021/07/01 09:46:21;;;;;;;1.50;1.00;;;17.00;98.20;;;;;;5011926;28;20487;-74
2021/07/01 09:49:03;;;;;;;1.50;1.00;;;17.00;98.20;;;;;;5029967;28;20466;-75
2021/07/01 09:51:30;;;;;;;1.60;1.20;;;17.00;98.20;;;;;;5012535;28;20504;-75
2021/07/01 09:54:01;;;;;;;1.50;1.00;;;17.00;98.20;;;;;;5034350;28;20456;-74
2021/07/01 09:56:37;;;;;;;1.50;0.90;;;16.90;98.20;;;;;;5014079;28;20528;-73
2021/07/01 09:59:11;;;;;;;1.50;1.00;;;17.00;98.20;;;;;;5032451;28;20487;-74
2021/07/01 10:01:40;;;;;;;1.50;0.90;;;17.00;98.20;;;;;;5017961;28;20528;-75
2021/07/01 10:04:13;;;;;;;1.50;1.00;;;17.00;98.20;;;;;;5029977;28;20464;-74
2021/07/01 10:06:40;;;;;;;1.50;1.00;;;17.00;98.20;;;;;;5018693;28;20486;-74
2021/07/01 10:09:30;;;;;;;1.50;0.90;;;17.00;98.20;;;;;;5029555;28;20475;-74
2021/07/01 10:11:59;;;;;;;1.50;1.00;;;17.00;98.20;;;;;;5015091;28;20589;-74
2021/07/01 10:14:39;;;;;;;1.50;0.93;;;17.00;98.20;;;;;;5022121;28;20461;-75
2021/07/01 10:17:11;;;;;;;1.50;1.00;;;17.00;98.20;;;;;;5012482;28;20561;-73
2021/07/01 10:19:40;;;;;;;1.50;0.90;;;17.10;98.20;;;;;;5016938;28;20538;-75
2021/07/01 10:22:09;;;;;;;1.50;0.90;;;17.20;98.20;;;;;;5011432;28;20598;-75
2021/07/01 10:24:49;;;;;;;1.50;1.00;;;17.20;98.20;;;;;;5017439;28;20460;-74
2021/07/01 10:27:29;;;;;;;1.50;0.90;;;17.20;98.20;;;;;;5024171;28;20490;-75
2021/07/01 10:30:00;;;;;;;1.50;1.00;;;17.20;98.20;;;;;;5012929;28;20460;-74
2021/07/01 10:32:38;;;;;;;1.50;0.90;;;17.20;98.00;;;;;;5023135;28;20883;-73
2021/07/01 10:35:23;;;;;;;1.50;1.00;;;17.30;98.10;;;;;;5015075;28;20464;-75
2021/07/01 10:38:02;;;;;;;1.50;0.90;;;17.40;98.10;;;;;;5033729;28;20528;-74
2021/07/01 10:40:29;;;;;;;1.50;0.90;;;17.40;98.00;;;;;;5011618;28;20923;-75
2021/07/01 10:42:57;;;;;;;1.50;1.00;;;17.50;97.90;;;;;;5026939;28;20490;-75
2021/07/01 10:45:25;;;;;;;1.60;1.10;;;17.60;98.00;;;;;;5011921;28;20963;-73
2021/07/01 10:47:54;;;;;;;1.50;1.00;;;17.60;98.20;;;;;;5033728;28;21007;-74
2021/07/01 10:50:30;;;;;;;1.80;1.50;;;17.60;97.70;;;;;;5009567;28;20901;-75
2021/07/01 10:52:57;;;;;;;1.50;0.90;;;17.70;97.70;;;;;;5032273;28;20486;-75
2021/07/01 10:55:24;;;;;;;1.50;1.00;;;17.70;97.50;;;;;;5011131;28;20918;-74
2021/07/01 10:57:55;;;;;;;1.50;0.90;;;17.70;97.60;;;;;;5031604;28;20482;-75
2021/07/01 11:00:38;;;;;;;1.50;0.90;;;17.70;97.00;;;;;;5010482;28;20507;-74
2021/07/01 11:03:06;;;;;;;1.50;1.00;;;17.60;96.70;;;;;;5017126;28;20490;-76
2021/07/01 11:05:37;;;;;;;1.50;1.00;;;17.50;97.30;;;;;;5007351;28;20480;-74
2021/07/01 11:08:06;;;;;;;1.50;0.90;;;17.50;97.60;;;;;;5032060;28;20493;-74
2021/07/01 11:10:34;;;;;;;1.50;1.00;;;17.50;97.60;;;;;;5009754;28;20719;-73
2021/07/01 11:13:07;;;;;;;1.50;1.00;;;17.40;97.60;;;;;;5029935;28;20581;-73
2021/07/01 11:15:34;;;;;;;1.50;0.90;;;17.40;98.00;;;;;;5010209;28;21061;-74
2021/07/01 11:18:09;;;;;;;1.50;1.00;;;17.40;98.20;;;;;;5032949;28;20490;-74
2021/07/01 11:20:37;;;;;;;1.50;0.90;;;17.30;98.20;;;;;;5009227;28;20491;-74
2021/07/01 11:23:05;;;;;;;1.70;1.33;;;17.30;98.10;;;;;;5029905;28;20500;-73
2021/07/01 11:25:35;;;;;;;1.50;0.90;;;17.20;98.20;;;;;;5009653;28;20460;-76
2021/07/01 11:28:18;;;;;;;1.50;0.97;;;17.20;98.20;;;;;;5031882;28;20578;-75
2021/07/01 11:30:53;;;;;;;1.50;1.00;;;17.30;98.20;;;;;;5004674;28;20483;-73
2021/07/01 11:33:21;;;;;;;1.50;0.93;;;17.30;98.20;;;;;;5034702;28;20472;-75
2021/07/01 11:35:51;;;;;;;1.50;0.90;;;17.40;98.20;;;;;;5001535;28;20535;-74
2021/07/01 11:38:29;;;;;;;1.50;0.90;;;17.40;98.20;;;;;;5021269;28;20479;-75
2021/07/01 11:40:59;;;;;;;1.50;1.00;;;17.40;98.20;;;;;;5000164;28;20547;-74
2021/07/01 11:43:27;;;;;;;1.50;0.90;;;17.50;98.20;;;;;;5057193;28;20694;-75
2021/07/01 11:45:55;;;;;;;1.50;0.90;;;17.50;98.00;;;;;;5019779;28;20771;-74
2021/07/01 11:48:24;;;;;;;1.50;0.90;;;17.50;97.80;;;;;;5058352;28;20622;-75
2021/07/01 11:50:54;;;;;;;1.50;1.00;;;17.40;98.20;;;;;;5017259;28;20486;-75
2021/07/01 11:53:22;;;;;;;1.50;0.90;;;17.40;98.00;;;;;;5042513;28;20901;-74
2021/07/01 11:55:51;;;;;;;1.50;0.90;;;17.40;98.20;;;;;;5015975;28;20962;-76
2021/07/01 11:58:19;;;;;;;1.50;0.90;;;17.40;98.20;;;;;;5050081;28;20455;-76
2021/07/01 12:00:46;;;;;;;1.50;1.00;;;17.50;98.20;;;;;;5023042;28;20494;-75
2021/07/01 12:03:14;;;;;;;1.50;0.90;;;17.50;98.20;;;;;;5065185;28;20499;-74
2021/07/01 12:05:43;;;;;;;1.50;0.90;;;17.50;98.20;;;;;;5029260;28;20549;-75
2021/07/01 12:08:13;;;;;;;1.50;0.90;;;17.40;98.20;;;;;;5020689;28;20483;-73
2021/07/01 12:10:41;;;;;;;1.50;0.90;;;17.40;98.20;;;;;;5023664;28;21032;-74
2021/07/01 12:13:41;;;;;;;1.50;1.00;;;17.40;98.20;;;;;;5012312;28;21116;-75
2021/07/01 12:16:10;;;;;;;1.50;0.90;;;17.40;98.20;;;;;;5002861;28;20477;-75
2021/07/01 12:19:05;;;;;;;1.60;1.23;;;17.40;98.20;;;;;;5032337;28;20807;-75
2021/07/01 12:21:33;;;;;;;1.50;0.90;;;17.40;98.20;;;;;;4984162;28;20474;-74
2021/07/01 12:24:04;;;;;;;1.50;0.90;;;17.40;98.20;;;;;;5024103;28;20472;-74
2021/07/01 12:26:42;;;;;;;1.50;0.90;;;17.40;98.20;;;;;;5008042;28;20483;-75
2021/07/01 12:29:12;;;;;;;1.50;1.00;;;17.40;98.20;;;;;;5022187;28;20468;-75
2021/07/01 12:31:41;;;;;;;1.50;1.00;;;17.40;98.20;;;;;;5002095;28;20509;-74
2021/07/01 12:34:09;;;;;;;1.50;1.00;;;17.40;98.20;;;;;;5014299;28;20456;-75
2021/07/01 12:36:40;;;;;;;1.50;1.00;;;17.40;98.20;;;;;;5010941;28;20509;-74
2021/07/01 12:39:26;;;;;;;1.50;1.00;;;17.40;98.20;;;;;;5024145;28;20499;-76
2021/07/01 12:41:58;;;;;;;1.50;1.00;;;17.40;98.20;;;;;;5001187;28;20574;-75
2021/07/01 12:44:30;;;;;;;1.50;1.00;;;17.40;98.20;;;;;;5012934;28;20526;-76
2021/07/01 12:47:08;;;;;;;1.50;1.00;;;17.50;98.20;;;;;;5018353;28;20940;-75
2021/07/01 12:49:57;;;;;;;1.50;0.90;;;17.50;98.20;;;;;;5019537;28;20460;-77
2021/07/01 12:52:33;;;;;;;1.50;0.90;;;17.50;98.20;;;;;;5025554;28;20510;-76
2021/07/01 12:55:02;;;;;;;1.50;0.90;;;17.60;98.20;;;;;;5011398;28;20912;-75
2021/07/01 12:57:29;;;;;;;1.50;0.90;;;17.60;98.20;;;;;;5027073;28;20478;-75
2021/07/01 12:59:58;;;;;;;1.50;0.90;;;17.50;98.20;;;;;;5014149;28;20488;-74